<?xml version="1.0" encoding="UTF-8" standalone="no" ?>
<gpx xmlns="http://www.topografix.com/GPX/1/1" xmlns:xsi="http://www.w3.org/2001/XMLSchema-instance" xsi:schemaLocation="http://www.topografix.com/GPX/1/1 http://www.topografix.com/GPX/1/1/gpx.xsd" version="1.1" creator="VisuGPX - https://www.visugpx.com">
  <metadata>
    <name>Tellin MARCHE ADEPS 2017 (Juil)</name>
    <desc><![CDATA[marche adeps beau petit coin bien sympa]]></desc>
  </metadata>
  <trk>
    <name><![CDATA[Tellin MARCHE ADEPS 2017 (Juil)_1]]></name>
    <trkseg>
      <trkpt lat="50.08929" lon="5.22389">
        <ele>243</ele>
        <time>2017-07-30T08:25:01Z</time>
      </trkpt>
      <trkpt lat="50.08896" lon="5.22258">
        <ele>243</ele>
        <time>2017-07-30T08:25:11Z</time>
      </trkpt>
      <trkpt lat="50.08905" lon="5.22291">
        <ele>244</ele>
        <time>2017-07-30T08:25:21Z</time>
      </trkpt>
      <trkpt lat="50.08893" lon="5.22332">
        <ele>243</ele>
        <time>2017-07-30T08:25:32Z</time>
      </trkpt>
      <trkpt lat="50.08887" lon="5.22342">
        <ele>243</ele>
        <time>2017-07-30T08:25:42Z</time>
      </trkpt>
      <trkpt lat="50.08866" lon="5.2234">
        <ele>244</ele>
        <time>2017-07-30T08:25:53Z</time>
      </trkpt>
      <trkpt lat="50.08841" lon="5.22334">
        <ele>245</ele>
        <time>2017-07-30T08:26:03Z</time>
      </trkpt>
      <trkpt lat="50.08813" lon="5.22328">
        <ele>245</ele>
        <time>2017-07-30T08:26:14Z</time>
      </trkpt>
      <trkpt lat="50.08786" lon="5.22324">
        <ele>246</ele>
        <time>2017-07-30T08:26:24Z</time>
      </trkpt>
      <trkpt lat="50.08755" lon="5.22319">
        <ele>247</ele>
        <time>2017-07-30T08:26:35Z</time>
      </trkpt>
      <trkpt lat="50.08728" lon="5.22315">
        <ele>248</ele>
        <time>2017-07-30T08:26:45Z</time>
      </trkpt>
      <trkpt lat="50.08701" lon="5.22309">
        <ele>249</ele>
        <time>2017-07-30T08:26:56Z</time>
      </trkpt>
      <trkpt lat="50.08676" lon="5.22305">
        <ele>250</ele>
        <time>2017-07-30T08:27:06Z</time>
      </trkpt>
      <trkpt lat="50.08655" lon="5.22298">
        <ele>251</ele>
        <time>2017-07-30T08:27:16Z</time>
      </trkpt>
      <trkpt lat="50.08631" lon="5.223">
        <ele>252</ele>
        <time>2017-07-30T08:27:26Z</time>
      </trkpt>
      <trkpt lat="50.08604" lon="5.22302">
        <ele>252</ele>
        <time>2017-07-30T08:27:37Z</time>
      </trkpt>
      <trkpt lat="50.08578" lon="5.22304">
        <ele>253</ele>
        <time>2017-07-30T08:27:47Z</time>
      </trkpt>
      <trkpt lat="50.08553" lon="5.22306">
        <ele>254</ele>
        <time>2017-07-30T08:27:58Z</time>
      </trkpt>
      <trkpt lat="50.08531" lon="5.22301">
        <ele>254</ele>
        <time>2017-07-30T08:28:08Z</time>
      </trkpt>
      <trkpt lat="50.08524" lon="5.22297">
        <ele>253</ele>
        <time>2017-07-30T08:28:19Z</time>
      </trkpt>
      <trkpt lat="50.08504" lon="5.22286">
        <ele>255</ele>
        <time>2017-07-30T08:28:29Z</time>
      </trkpt>
      <trkpt lat="50.08479" lon="5.22271">
        <ele>255</ele>
        <time>2017-07-30T08:28:40Z</time>
      </trkpt>
      <trkpt lat="50.08453" lon="5.22257">
        <ele>255</ele>
        <time>2017-07-30T08:28:51Z</time>
      </trkpt>
      <trkpt lat="50.08426" lon="5.2224">
        <ele>256</ele>
        <time>2017-07-30T08:29:02Z</time>
      </trkpt>
      <trkpt lat="50.08404" lon="5.22225">
        <ele>257</ele>
        <time>2017-07-30T08:29:12Z</time>
      </trkpt>
      <trkpt lat="50.08381" lon="5.2221">
        <ele>257</ele>
        <time>2017-07-30T08:29:23Z</time>
      </trkpt>
      <trkpt lat="50.0836" lon="5.22195">
        <ele>258</ele>
        <time>2017-07-30T08:29:34Z</time>
      </trkpt>
      <trkpt lat="50.08339" lon="5.22181">
        <ele>259</ele>
        <time>2017-07-30T08:29:44Z</time>
      </trkpt>
      <trkpt lat="50.08317" lon="5.22164">
        <ele>260</ele>
        <time>2017-07-30T08:29:55Z</time>
      </trkpt>
      <trkpt lat="50.08293" lon="5.22153">
        <ele>261</ele>
        <time>2017-07-30T08:30:05Z</time>
      </trkpt>
      <trkpt lat="50.0827" lon="5.22137">
        <ele>261</ele>
        <time>2017-07-30T08:30:16Z</time>
      </trkpt>
      <trkpt lat="50.08248" lon="5.22124">
        <ele>262</ele>
        <time>2017-07-30T08:30:26Z</time>
      </trkpt>
      <trkpt lat="50.08229" lon="5.22111">
        <ele>262</ele>
        <time>2017-07-30T08:30:36Z</time>
      </trkpt>
      <trkpt lat="50.08214" lon="5.22106">
        <ele>263</ele>
        <time>2017-07-30T08:30:47Z</time>
      </trkpt>
      <trkpt lat="50.08197" lon="5.22105">
        <ele>263</ele>
        <time>2017-07-30T08:30:58Z</time>
      </trkpt>
      <trkpt lat="50.08186" lon="5.22095">
        <ele>264</ele>
        <time>2017-07-30T08:31:08Z</time>
      </trkpt>
      <trkpt lat="50.08176" lon="5.22083">
        <ele>265</ele>
        <time>2017-07-30T08:31:19Z</time>
      </trkpt>
      <trkpt lat="50.08165" lon="5.22069">
        <ele>267</ele>
        <time>2017-07-30T08:31:30Z</time>
      </trkpt>
      <trkpt lat="50.08157" lon="5.22076">
        <ele>267</ele>
        <time>2017-07-30T08:31:40Z</time>
      </trkpt>
      <trkpt lat="50.08142" lon="5.22083">
        <ele>266</ele>
        <time>2017-07-30T08:31:51Z</time>
      </trkpt>
      <trkpt lat="50.08126" lon="5.22081">
        <ele>266</ele>
        <time>2017-07-30T08:32:01Z</time>
      </trkpt>
      <trkpt lat="50.08112" lon="5.22062">
        <ele>266</ele>
        <time>2017-07-30T08:32:12Z</time>
      </trkpt>
      <trkpt lat="50.08103" lon="5.22039">
        <ele>266</ele>
        <time>2017-07-30T08:32:23Z</time>
      </trkpt>
      <trkpt lat="50.08094" lon="5.22017">
        <ele>267</ele>
        <time>2017-07-30T08:32:33Z</time>
      </trkpt>
      <trkpt lat="50.08084" lon="5.21993">
        <ele>267</ele>
        <time>2017-07-30T08:32:44Z</time>
      </trkpt>
      <trkpt lat="50.08075" lon="5.21969">
        <ele>268</ele>
        <time>2017-07-30T08:32:55Z</time>
      </trkpt>
      <trkpt lat="50.08067" lon="5.21946">
        <ele>268</ele>
        <time>2017-07-30T08:33:05Z</time>
      </trkpt>
      <trkpt lat="50.0806" lon="5.21926">
        <ele>269</ele>
        <time>2017-07-30T08:33:15Z</time>
      </trkpt>
      <trkpt lat="50.08057" lon="5.21904">
        <ele>268</ele>
        <time>2017-07-30T08:33:25Z</time>
      </trkpt>
      <trkpt lat="50.0805" lon="5.21879">
        <ele>270</ele>
        <time>2017-07-30T08:33:36Z</time>
      </trkpt>
      <trkpt lat="50.08042" lon="5.21856">
        <ele>270</ele>
        <time>2017-07-30T08:33:46Z</time>
      </trkpt>
      <trkpt lat="50.08032" lon="5.21835">
        <ele>270</ele>
        <time>2017-07-30T08:33:56Z</time>
      </trkpt>
      <trkpt lat="50.08025" lon="5.21813">
        <ele>271</ele>
        <time>2017-07-30T08:34:06Z</time>
      </trkpt>
      <trkpt lat="50.08019" lon="5.21791">
        <ele>271</ele>
        <time>2017-07-30T08:34:16Z</time>
      </trkpt>
      <trkpt lat="50.08011" lon="5.21768">
        <ele>271</ele>
        <time>2017-07-30T08:34:26Z</time>
      </trkpt>
      <trkpt lat="50.08001" lon="5.21745">
        <ele>272</ele>
        <time>2017-07-30T08:34:37Z</time>
      </trkpt>
      <trkpt lat="50.07993" lon="5.21727">
        <ele>273</ele>
        <time>2017-07-30T08:34:47Z</time>
      </trkpt>
      <trkpt lat="50.07986" lon="5.21702">
        <ele>272</ele>
        <time>2017-07-30T08:34:58Z</time>
      </trkpt>
      <trkpt lat="50.07995" lon="5.21688">
        <ele>274</ele>
        <time>2017-07-30T08:35:08Z</time>
      </trkpt>
      <trkpt lat="50.08008" lon="5.21674">
        <ele>276</ele>
        <time>2017-07-30T08:35:19Z</time>
      </trkpt>
      <trkpt lat="50.08022" lon="5.21665">
        <ele>278</ele>
        <time>2017-07-30T08:35:30Z</time>
      </trkpt>
      <trkpt lat="50.08028" lon="5.21646">
        <ele>280</ele>
        <time>2017-07-30T08:35:41Z</time>
      </trkpt>
      <trkpt lat="50.08019" lon="5.21628">
        <ele>282</ele>
        <time>2017-07-30T08:35:52Z</time>
      </trkpt>
      <trkpt lat="50.08012" lon="5.21605">
        <ele>282</ele>
        <time>2017-07-30T08:36:03Z</time>
      </trkpt>
      <trkpt lat="50.08014" lon="5.2158">
        <ele>282</ele>
        <time>2017-07-30T08:36:14Z</time>
      </trkpt>
      <trkpt lat="50.08023" lon="5.21562">
        <ele>283</ele>
        <time>2017-07-30T08:36:24Z</time>
      </trkpt>
      <trkpt lat="50.08026" lon="5.21538">
        <ele>285</ele>
        <time>2017-07-30T08:36:35Z</time>
      </trkpt>
      <trkpt lat="50.08024" lon="5.21513">
        <ele>286</ele>
        <time>2017-07-30T08:36:45Z</time>
      </trkpt>
      <trkpt lat="50.08021" lon="5.21488">
        <ele>288</ele>
        <time>2017-07-30T08:36:55Z</time>
      </trkpt>
      <trkpt lat="50.08018" lon="5.21466">
        <ele>288</ele>
        <time>2017-07-30T08:37:05Z</time>
      </trkpt>
      <trkpt lat="50.08012" lon="5.21445">
        <ele>289</ele>
        <time>2017-07-30T08:37:16Z</time>
      </trkpt>
      <trkpt lat="50.08008" lon="5.21422">
        <ele>291</ele>
        <time>2017-07-30T08:37:26Z</time>
      </trkpt>
      <trkpt lat="50.07999" lon="5.21399">
        <ele>292</ele>
        <time>2017-07-30T08:37:37Z</time>
      </trkpt>
      <trkpt lat="50.0799" lon="5.21378">
        <ele>294</ele>
        <time>2017-07-30T08:37:48Z</time>
      </trkpt>
      <trkpt lat="50.07985" lon="5.21357">
        <ele>295</ele>
        <time>2017-07-30T08:37:58Z</time>
      </trkpt>
      <trkpt lat="50.07981" lon="5.21336">
        <ele>296</ele>
        <time>2017-07-30T08:38:09Z</time>
      </trkpt>
      <trkpt lat="50.07978" lon="5.21316">
        <ele>297</ele>
        <time>2017-07-30T08:38:19Z</time>
      </trkpt>
      <trkpt lat="50.07969" lon="5.2129">
        <ele>299</ele>
        <time>2017-07-30T08:38:30Z</time>
      </trkpt>
      <trkpt lat="50.07963" lon="5.21268">
        <ele>300</ele>
        <time>2017-07-30T08:38:40Z</time>
      </trkpt>
      <trkpt lat="50.07954" lon="5.21245">
        <ele>302</ele>
        <time>2017-07-30T08:38:51Z</time>
      </trkpt>
      <trkpt lat="50.07951" lon="5.21222">
        <ele>303</ele>
        <time>2017-07-30T08:39:01Z</time>
      </trkpt>
      <trkpt lat="50.07945" lon="5.21199">
        <ele>304</ele>
        <time>2017-07-30T08:39:12Z</time>
      </trkpt>
      <trkpt lat="50.07939" lon="5.21174">
        <ele>306</ele>
        <time>2017-07-30T08:39:23Z</time>
      </trkpt>
      <trkpt lat="50.07933" lon="5.21153">
        <ele>306</ele>
        <time>2017-07-30T08:39:33Z</time>
      </trkpt>
      <trkpt lat="50.07929" lon="5.21131">
        <ele>308</ele>
        <time>2017-07-30T08:39:43Z</time>
      </trkpt>
      <trkpt lat="50.07924" lon="5.21106">
        <ele>310</ele>
        <time>2017-07-30T08:39:54Z</time>
      </trkpt>
      <trkpt lat="50.07918" lon="5.21081">
        <ele>311</ele>
        <time>2017-07-30T08:40:05Z</time>
      </trkpt>
      <trkpt lat="50.07914" lon="5.21057">
        <ele>312</ele>
        <time>2017-07-30T08:40:16Z</time>
      </trkpt>
      <trkpt lat="50.07908" lon="5.21034">
        <ele>314</ele>
        <time>2017-07-30T08:40:27Z</time>
      </trkpt>
      <trkpt lat="50.07903" lon="5.21013">
        <ele>315</ele>
        <time>2017-07-30T08:40:37Z</time>
      </trkpt>
      <trkpt lat="50.07898" lon="5.2099">
        <ele>317</ele>
        <time>2017-07-30T08:40:48Z</time>
      </trkpt>
      <trkpt lat="50.07894" lon="5.20968">
        <ele>317</ele>
        <time>2017-07-30T08:40:58Z</time>
      </trkpt>
      <trkpt lat="50.07888" lon="5.20945">
        <ele>319</ele>
        <time>2017-07-30T08:41:08Z</time>
      </trkpt>
      <trkpt lat="50.07884" lon="5.20924">
        <ele>321</ele>
        <time>2017-07-30T08:41:18Z</time>
      </trkpt>
      <trkpt lat="50.07879" lon="5.20901">
        <ele>321</ele>
        <time>2017-07-30T08:41:28Z</time>
      </trkpt>
      <trkpt lat="50.07877" lon="5.20873">
        <ele>322</ele>
        <time>2017-07-30T08:41:39Z</time>
      </trkpt>
      <trkpt lat="50.07878" lon="5.20848">
        <ele>324</ele>
        <time>2017-07-30T08:41:49Z</time>
      </trkpt>
      <trkpt lat="50.07878" lon="5.20822">
        <ele>325</ele>
        <time>2017-07-30T08:42:00Z</time>
      </trkpt>
      <trkpt lat="50.07877" lon="5.20798">
        <ele>327</ele>
        <time>2017-07-30T08:42:10Z</time>
      </trkpt>
      <trkpt lat="50.07877" lon="5.20774">
        <ele>328</ele>
        <time>2017-07-30T08:42:20Z</time>
      </trkpt>
      <trkpt lat="50.07876" lon="5.20747">
        <ele>330</ele>
        <time>2017-07-30T08:42:31Z</time>
      </trkpt>
      <trkpt lat="50.07874" lon="5.20723">
        <ele>330</ele>
        <time>2017-07-30T08:42:41Z</time>
      </trkpt>
      <trkpt lat="50.07871" lon="5.207">
        <ele>331</ele>
        <time>2017-07-30T08:42:51Z</time>
      </trkpt>
      <trkpt lat="50.07869" lon="5.20677">
        <ele>332</ele>
        <time>2017-07-30T08:43:01Z</time>
      </trkpt>
      <trkpt lat="50.07864" lon="5.20656">
        <ele>333</ele>
        <time>2017-07-30T08:43:11Z</time>
      </trkpt>
      <trkpt lat="50.07856" lon="5.20637">
        <ele>334</ele>
        <time>2017-07-30T08:43:21Z</time>
      </trkpt>
      <trkpt lat="50.0785" lon="5.20616">
        <ele>335</ele>
        <time>2017-07-30T08:43:31Z</time>
      </trkpt>
      <trkpt lat="50.07842" lon="5.20596">
        <ele>336</ele>
        <time>2017-07-30T08:43:41Z</time>
      </trkpt>
      <trkpt lat="50.07833" lon="5.20573">
        <ele>338</ele>
        <time>2017-07-30T08:43:51Z</time>
      </trkpt>
      <trkpt lat="50.07823" lon="5.2055">
        <ele>339</ele>
        <time>2017-07-30T08:44:02Z</time>
      </trkpt>
      <trkpt lat="50.07815" lon="5.20529">
        <ele>341</ele>
        <time>2017-07-30T08:44:12Z</time>
      </trkpt>
      <trkpt lat="50.07807" lon="5.20509">
        <ele>342</ele>
        <time>2017-07-30T08:44:22Z</time>
      </trkpt>
      <trkpt lat="50.07795" lon="5.20492">
        <ele>344</ele>
        <time>2017-07-30T08:44:33Z</time>
      </trkpt>
      <trkpt lat="50.07782" lon="5.20482">
        <ele>344</ele>
        <time>2017-07-30T08:44:43Z</time>
      </trkpt>
      <trkpt lat="50.07769" lon="5.20477">
        <ele>346</ele>
        <time>2017-07-30T08:44:53Z</time>
      </trkpt>
      <trkpt lat="50.07753" lon="5.20468">
        <ele>347</ele>
        <time>2017-07-30T08:45:04Z</time>
      </trkpt>
      <trkpt lat="50.0774" lon="5.20459">
        <ele>349</ele>
        <time>2017-07-30T08:45:14Z</time>
      </trkpt>
      <trkpt lat="50.07727" lon="5.20449">
        <ele>350</ele>
        <time>2017-07-30T08:45:24Z</time>
      </trkpt>
      <trkpt lat="50.07716" lon="5.20437">
        <ele>350</ele>
        <time>2017-07-30T08:45:34Z</time>
      </trkpt>
      <trkpt lat="50.07703" lon="5.20421">
        <ele>349</ele>
        <time>2017-07-30T08:45:45Z</time>
      </trkpt>
      <trkpt lat="50.07691" lon="5.20404">
        <ele>351</ele>
        <time>2017-07-30T08:45:55Z</time>
      </trkpt>
      <trkpt lat="50.07682" lon="5.20387">
        <ele>352</ele>
        <time>2017-07-30T08:46:05Z</time>
      </trkpt>
      <trkpt lat="50.07673" lon="5.20372">
        <ele>353</ele>
        <time>2017-07-30T08:46:15Z</time>
      </trkpt>
      <trkpt lat="50.07665" lon="5.20358">
        <ele>354</ele>
        <time>2017-07-30T08:46:25Z</time>
      </trkpt>
      <trkpt lat="50.07661" lon="5.2035">
        <ele>355</ele>
        <time>2017-07-30T08:46:36Z</time>
      </trkpt>
      <trkpt lat="50.07659" lon="5.20346">
        <ele>355</ele>
        <time>2017-07-30T08:46:46Z</time>
      </trkpt>
      <trkpt lat="50.07658" lon="5.20345">
        <ele>355</ele>
        <time>2017-07-30T08:46:56Z</time>
      </trkpt>
      <trkpt lat="50.07656" lon="5.20342">
        <ele>356</ele>
        <time>2017-07-30T08:47:07Z</time>
      </trkpt>
      <trkpt lat="50.07656" lon="5.20343">
        <ele>355</ele>
        <time>2017-07-30T08:47:17Z</time>
      </trkpt>
      <trkpt lat="50.07657" lon="5.20345">
        <ele>355</ele>
        <time>2017-07-30T08:47:28Z</time>
      </trkpt>
      <trkpt lat="50.07657" lon="5.20346">
        <ele>355</ele>
        <time>2017-07-30T08:47:38Z</time>
      </trkpt>
      <trkpt lat="50.07655" lon="5.20343">
        <ele>355</ele>
        <time>2017-07-30T08:47:48Z</time>
      </trkpt>
      <trkpt lat="50.07648" lon="5.20334">
        <ele>355</ele>
        <time>2017-07-30T08:47:59Z</time>
      </trkpt>
      <trkpt lat="50.07638" lon="5.20319">
        <ele>356</ele>
        <time>2017-07-30T08:48:10Z</time>
      </trkpt>
      <trkpt lat="50.07628" lon="5.20305">
        <ele>357</ele>
        <time>2017-07-30T08:48:20Z</time>
      </trkpt>
      <trkpt lat="50.07618" lon="5.20288">
        <ele>357</ele>
        <time>2017-07-30T08:48:31Z</time>
      </trkpt>
      <trkpt lat="50.07609" lon="5.20274">
        <ele>357</ele>
        <time>2017-07-30T08:48:41Z</time>
      </trkpt>
      <trkpt lat="50.07599" lon="5.20257">
        <ele>358</ele>
        <time>2017-07-30T08:48:51Z</time>
      </trkpt>
      <trkpt lat="50.07578" lon="5.20225">
        <ele>359</ele>
        <time>2017-07-30T08:49:02Z</time>
      </trkpt>
      <trkpt lat="50.07563" lon="5.20192">
        <ele>358</ele>
        <time>2017-07-30T08:49:12Z</time>
      </trkpt>
      <trkpt lat="50.0755" lon="5.20159">
        <ele>355</ele>
        <time>2017-07-30T08:49:23Z</time>
      </trkpt>
      <trkpt lat="50.0754" lon="5.20131">
        <ele>354</ele>
        <time>2017-07-30T08:49:33Z</time>
      </trkpt>
      <trkpt lat="50.07528" lon="5.20095">
        <ele>352</ele>
        <time>2017-07-30T08:49:43Z</time>
      </trkpt>
      <trkpt lat="50.07514" lon="5.20055">
        <ele>351</ele>
        <time>2017-07-30T08:49:54Z</time>
      </trkpt>
      <trkpt lat="50.07499" lon="5.20017">
        <ele>350</ele>
        <time>2017-07-30T08:50:05Z</time>
      </trkpt>
      <trkpt lat="50.07487" lon="5.19984">
        <ele>349</ele>
        <time>2017-07-30T08:50:15Z</time>
      </trkpt>
      <trkpt lat="50.07473" lon="5.19948">
        <ele>348</ele>
        <time>2017-07-30T08:50:25Z</time>
      </trkpt>
      <trkpt lat="50.07458" lon="5.19914">
        <ele>348</ele>
        <time>2017-07-30T08:50:36Z</time>
      </trkpt>
      <trkpt lat="50.07435" lon="5.19894">
        <ele>346</ele>
        <time>2017-07-30T08:50:46Z</time>
      </trkpt>
      <trkpt lat="50.07408" lon="5.19891">
        <ele>346</ele>
        <time>2017-07-30T08:50:56Z</time>
      </trkpt>
      <trkpt lat="50.07381" lon="5.19881">
        <ele>345</ele>
        <time>2017-07-30T08:51:07Z</time>
      </trkpt>
      <trkpt lat="50.07356" lon="5.19865">
        <ele>346</ele>
        <time>2017-07-30T08:51:18Z</time>
      </trkpt>
      <trkpt lat="50.0733" lon="5.19849">
        <ele>347</ele>
        <time>2017-07-30T08:51:29Z</time>
      </trkpt>
      <trkpt lat="50.07306" lon="5.19836">
        <ele>348</ele>
        <time>2017-07-30T08:51:39Z</time>
      </trkpt>
      <trkpt lat="50.07281" lon="5.1982">
        <ele>349</ele>
        <time>2017-07-30T08:51:50Z</time>
      </trkpt>
      <trkpt lat="50.07256" lon="5.19814">
        <ele>351</ele>
        <time>2017-07-30T08:52:00Z</time>
      </trkpt>
      <trkpt lat="50.07231" lon="5.19808">
        <ele>352</ele>
        <time>2017-07-30T08:52:11Z</time>
      </trkpt>
      <trkpt lat="50.07218" lon="5.19774">
        <ele>354</ele>
        <time>2017-07-30T08:52:22Z</time>
      </trkpt>
      <trkpt lat="50.07213" lon="5.19753">
        <ele>355</ele>
        <time>2017-07-30T08:52:32Z</time>
      </trkpt>
      <trkpt lat="50.07208" lon="5.19726">
        <ele>356</ele>
        <time>2017-07-30T08:52:43Z</time>
      </trkpt>
      <trkpt lat="50.07204" lon="5.19704">
        <ele>356</ele>
        <time>2017-07-30T08:52:53Z</time>
      </trkpt>
      <trkpt lat="50.07202" lon="5.19678">
        <ele>357</ele>
        <time>2017-07-30T08:53:04Z</time>
      </trkpt>
      <trkpt lat="50.07196" lon="5.19656">
        <ele>358</ele>
        <time>2017-07-30T08:53:15Z</time>
      </trkpt>
      <trkpt lat="50.07191" lon="5.19633">
        <ele>358</ele>
        <time>2017-07-30T08:53:25Z</time>
      </trkpt>
      <trkpt lat="50.07185" lon="5.19608">
        <ele>358</ele>
        <time>2017-07-30T08:53:36Z</time>
      </trkpt>
      <trkpt lat="50.0718" lon="5.19583">
        <ele>360</ele>
        <time>2017-07-30T08:53:46Z</time>
      </trkpt>
      <trkpt lat="50.07174" lon="5.19556">
        <ele>361</ele>
        <time>2017-07-30T08:53:57Z</time>
      </trkpt>
      <trkpt lat="50.0717" lon="5.19532">
        <ele>361</ele>
        <time>2017-07-30T08:54:07Z</time>
      </trkpt>
      <trkpt lat="50.07173" lon="5.19506">
        <ele>362</ele>
        <time>2017-07-30T08:54:18Z</time>
      </trkpt>
      <trkpt lat="50.07188" lon="5.1947">
        <ele>360</ele>
        <time>2017-07-30T08:54:28Z</time>
      </trkpt>
      <trkpt lat="50.07204" lon="5.19436">
        <ele>361</ele>
        <time>2017-07-30T08:54:38Z</time>
      </trkpt>
      <trkpt lat="50.0722" lon="5.19397">
        <ele>358</ele>
        <time>2017-07-30T08:54:49Z</time>
      </trkpt>
      <trkpt lat="50.07239" lon="5.19363">
        <ele>356</ele>
        <time>2017-07-30T08:54:59Z</time>
      </trkpt>
      <trkpt lat="50.07261" lon="5.19335">
        <ele>354</ele>
        <time>2017-07-30T08:55:09Z</time>
      </trkpt>
      <trkpt lat="50.07287" lon="5.19312">
        <ele>353</ele>
        <time>2017-07-30T08:55:20Z</time>
      </trkpt>
      <trkpt lat="50.07312" lon="5.19288">
        <ele>352</ele>
        <time>2017-07-30T08:55:31Z</time>
      </trkpt>
      <trkpt lat="50.07335" lon="5.19263">
        <ele>350</ele>
        <time>2017-07-30T08:55:41Z</time>
      </trkpt>
      <trkpt lat="50.07365" lon="5.19251">
        <ele>347</ele>
        <time>2017-07-30T08:55:52Z</time>
      </trkpt>
      <trkpt lat="50.07384" lon="5.19244">
        <ele>345</ele>
        <time>2017-07-30T08:56:02Z</time>
      </trkpt>
      <trkpt lat="50.07399" lon="5.19228">
        <ele>343</ele>
        <time>2017-07-30T08:56:12Z</time>
      </trkpt>
      <trkpt lat="50.07421" lon="5.19199">
        <ele>341</ele>
        <time>2017-07-30T08:56:23Z</time>
      </trkpt>
      <trkpt lat="50.07444" lon="5.19176">
        <ele>339</ele>
        <time>2017-07-30T08:56:33Z</time>
      </trkpt>
      <trkpt lat="50.07466" lon="5.19155">
        <ele>337</ele>
        <time>2017-07-30T08:56:43Z</time>
      </trkpt>
      <trkpt lat="50.07486" lon="5.19127">
        <ele>334</ele>
        <time>2017-07-30T08:56:53Z</time>
      </trkpt>
      <trkpt lat="50.0751" lon="5.19094">
        <ele>331</ele>
        <time>2017-07-30T08:57:04Z</time>
      </trkpt>
      <trkpt lat="50.07538" lon="5.19073">
        <ele>328</ele>
        <time>2017-07-30T08:57:15Z</time>
      </trkpt>
      <trkpt lat="50.07564" lon="5.19059">
        <ele>327</ele>
        <time>2017-07-30T08:57:25Z</time>
      </trkpt>
      <trkpt lat="50.07589" lon="5.19056">
        <ele>328</ele>
        <time>2017-07-30T08:57:35Z</time>
      </trkpt>
      <trkpt lat="50.07617" lon="5.19067">
        <ele>327</ele>
        <time>2017-07-30T08:57:46Z</time>
      </trkpt>
      <trkpt lat="50.07647" lon="5.19075">
        <ele>326</ele>
        <time>2017-07-30T08:57:57Z</time>
      </trkpt>
      <trkpt lat="50.07668" lon="5.19071">
        <ele>327</ele>
        <time>2017-07-30T08:58:07Z</time>
      </trkpt>
      <trkpt lat="50.07692" lon="5.19056">
        <ele>325</ele>
        <time>2017-07-30T08:58:18Z</time>
      </trkpt>
      <trkpt lat="50.07711" lon="5.19043">
        <ele>322</ele>
        <time>2017-07-30T08:58:28Z</time>
      </trkpt>
      <trkpt lat="50.07732" lon="5.19042">
        <ele>318</ele>
        <time>2017-07-30T08:58:38Z</time>
      </trkpt>
      <trkpt lat="50.07763" lon="5.19046">
        <ele>313</ele>
        <time>2017-07-30T08:58:49Z</time>
      </trkpt>
      <trkpt lat="50.07784" lon="5.19044">
        <ele>309</ele>
        <time>2017-07-30T08:58:59Z</time>
      </trkpt>
      <trkpt lat="50.07801" lon="5.1903">
        <ele>305</ele>
        <time>2017-07-30T08:59:09Z</time>
      </trkpt>
      <trkpt lat="50.07819" lon="5.19">
        <ele>302</ele>
        <time>2017-07-30T08:59:20Z</time>
      </trkpt>
      <trkpt lat="50.07835" lon="5.18965">
        <ele>298</ele>
        <time>2017-07-30T08:59:30Z</time>
      </trkpt>
      <trkpt lat="50.07852" lon="5.18935">
        <ele>296</ele>
        <time>2017-07-30T08:59:40Z</time>
      </trkpt>
      <trkpt lat="50.07867" lon="5.18902">
        <ele>293</ele>
        <time>2017-07-30T08:59:50Z</time>
      </trkpt>
      <trkpt lat="50.07884" lon="5.18868">
        <ele>290</ele>
        <time>2017-07-30T09:00:00Z</time>
      </trkpt>
      <trkpt lat="50.079" lon="5.18828">
        <ele>288</ele>
        <time>2017-07-30T09:00:10Z</time>
      </trkpt>
      <trkpt lat="50.07919" lon="5.18788">
        <ele>285</ele>
        <time>2017-07-30T09:00:21Z</time>
      </trkpt>
      <trkpt lat="50.07941" lon="5.18751">
        <ele>284</ele>
        <time>2017-07-30T09:00:32Z</time>
      </trkpt>
      <trkpt lat="50.07964" lon="5.18716">
        <ele>284</ele>
        <time>2017-07-30T09:00:43Z</time>
      </trkpt>
      <trkpt lat="50.07988" lon="5.18695">
        <ele>283</ele>
        <time>2017-07-30T09:00:53Z</time>
      </trkpt>
      <trkpt lat="50.0801" lon="5.18685">
        <ele>279</ele>
        <time>2017-07-30T09:01:04Z</time>
      </trkpt>
      <trkpt lat="50.08036" lon="5.18682">
        <ele>277</ele>
        <time>2017-07-30T09:01:14Z</time>
      </trkpt>
      <trkpt lat="50.0806" lon="5.18669">
        <ele>273</ele>
        <time>2017-07-30T09:01:25Z</time>
      </trkpt>
      <trkpt lat="50.08069" lon="5.18638">
        <ele>271</ele>
        <time>2017-07-30T09:01:35Z</time>
      </trkpt>
      <trkpt lat="50.08076" lon="5.18601">
        <ele>268</ele>
        <time>2017-07-30T09:01:45Z</time>
      </trkpt>
      <trkpt lat="50.08079" lon="5.18558">
        <ele>265</ele>
        <time>2017-07-30T09:01:56Z</time>
      </trkpt>
      <trkpt lat="50.0808" lon="5.18518">
        <ele>262</ele>
        <time>2017-07-30T09:02:06Z</time>
      </trkpt>
      <trkpt lat="50.08084" lon="5.18478">
        <ele>258</ele>
        <time>2017-07-30T09:02:16Z</time>
      </trkpt>
      <trkpt lat="50.08088" lon="5.1844">
        <ele>256</ele>
        <time>2017-07-30T09:02:26Z</time>
      </trkpt>
      <trkpt lat="50.08089" lon="5.18419">
        <ele>254</ele>
        <time>2017-07-30T09:02:37Z</time>
      </trkpt>
      <trkpt lat="50.08095" lon="5.18378">
        <ele>253</ele>
        <time>2017-07-30T09:02:47Z</time>
      </trkpt>
      <trkpt lat="50.08101" lon="5.18337">
        <ele>249</ele>
        <time>2017-07-30T09:02:57Z</time>
      </trkpt>
      <trkpt lat="50.08109" lon="5.18289">
        <ele>245</ele>
        <time>2017-07-30T09:03:08Z</time>
      </trkpt>
      <trkpt lat="50.08116" lon="5.18246">
        <ele>241</ele>
        <time>2017-07-30T09:03:18Z</time>
      </trkpt>
      <trkpt lat="50.08122" lon="5.18205">
        <ele>239</ele>
        <time>2017-07-30T09:03:28Z</time>
      </trkpt>
      <trkpt lat="50.08135" lon="5.18164">
        <ele>238</ele>
        <time>2017-07-30T09:03:39Z</time>
      </trkpt>
      <trkpt lat="50.08151" lon="5.18133">
        <ele>236</ele>
        <time>2017-07-30T09:03:50Z</time>
      </trkpt>
      <trkpt lat="50.08168" lon="5.18106">
        <ele>233</ele>
        <time>2017-07-30T09:04:00Z</time>
      </trkpt>
      <trkpt lat="50.08192" lon="5.18088">
        <ele>232</ele>
        <time>2017-07-30T09:04:10Z</time>
      </trkpt>
      <trkpt lat="50.0822" lon="5.18078">
        <ele>232</ele>
        <time>2017-07-30T09:04:20Z</time>
      </trkpt>
      <trkpt lat="50.08246" lon="5.18069">
        <ele>231</ele>
        <time>2017-07-30T09:04:31Z</time>
      </trkpt>
      <trkpt lat="50.0826" lon="5.18037">
        <ele>231</ele>
        <time>2017-07-30T09:04:41Z</time>
      </trkpt>
      <trkpt lat="50.08262" lon="5.17997">
        <ele>230</ele>
        <time>2017-07-30T09:04:52Z</time>
      </trkpt>
      <trkpt lat="50.08265" lon="5.17956">
        <ele>230</ele>
        <time>2017-07-30T09:05:03Z</time>
      </trkpt>
      <trkpt lat="50.08266" lon="5.17914">
        <ele>230</ele>
        <time>2017-07-30T09:05:14Z</time>
      </trkpt>
      <trkpt lat="50.08263" lon="5.17874">
        <ele>230</ele>
        <time>2017-07-30T09:05:24Z</time>
      </trkpt>
      <trkpt lat="50.08262" lon="5.17833">
        <ele>229</ele>
        <time>2017-07-30T09:05:35Z</time>
      </trkpt>
      <trkpt lat="50.08265" lon="5.17802">
        <ele>230</ele>
        <time>2017-07-30T09:05:45Z</time>
      </trkpt>
      <trkpt lat="50.08266" lon="5.17771">
        <ele>228</ele>
        <time>2017-07-30T09:05:55Z</time>
      </trkpt>
      <trkpt lat="50.08262" lon="5.17733">
        <ele>227</ele>
        <time>2017-07-30T09:06:05Z</time>
      </trkpt>
      <trkpt lat="50.08277" lon="5.17712">
        <ele>225</ele>
        <time>2017-07-30T09:06:16Z</time>
      </trkpt>
      <trkpt lat="50.08298" lon="5.17709">
        <ele>223</ele>
        <time>2017-07-30T09:06:26Z</time>
      </trkpt>
      <trkpt lat="50.0831" lon="5.17746">
        <ele>222</ele>
        <time>2017-07-30T09:06:37Z</time>
      </trkpt>
      <trkpt lat="50.08323" lon="5.17781">
        <ele>221</ele>
        <time>2017-07-30T09:06:48Z</time>
      </trkpt>
      <trkpt lat="50.08339" lon="5.17816">
        <ele>222</ele>
        <time>2017-07-30T09:06:59Z</time>
      </trkpt>
      <trkpt lat="50.08351" lon="5.17848">
        <ele>221</ele>
        <time>2017-07-30T09:07:09Z</time>
      </trkpt>
      <trkpt lat="50.0836" lon="5.17883">
        <ele>221</ele>
        <time>2017-07-30T09:07:19Z</time>
      </trkpt>
      <trkpt lat="50.08364" lon="5.17925">
        <ele>221</ele>
        <time>2017-07-30T09:07:30Z</time>
      </trkpt>
      <trkpt lat="50.08369" lon="5.17962">
        <ele>221</ele>
        <time>2017-07-30T09:07:40Z</time>
      </trkpt>
      <trkpt lat="50.08374" lon="5.18">
        <ele>221</ele>
        <time>2017-07-30T09:07:51Z</time>
      </trkpt>
      <trkpt lat="50.08381" lon="5.18038">
        <ele>221</ele>
        <time>2017-07-30T09:08:02Z</time>
      </trkpt>
      <trkpt lat="50.08388" lon="5.18071">
        <ele>221</ele>
        <time>2017-07-30T09:08:12Z</time>
      </trkpt>
      <trkpt lat="50.0841" lon="5.18077">
        <ele>220</ele>
        <time>2017-07-30T09:08:23Z</time>
      </trkpt>
      <trkpt lat="50.08431" lon="5.18097">
        <ele>220</ele>
        <time>2017-07-30T09:08:34Z</time>
      </trkpt>
      <trkpt lat="50.08449" lon="5.18127">
        <ele>219</ele>
        <time>2017-07-30T09:08:45Z</time>
      </trkpt>
      <trkpt lat="50.08458" lon="5.18161">
        <ele>219</ele>
        <time>2017-07-30T09:08:55Z</time>
      </trkpt>
      <trkpt lat="50.08467" lon="5.182">
        <ele>219</ele>
        <time>2017-07-30T09:09:06Z</time>
      </trkpt>
      <trkpt lat="50.08476" lon="5.18238">
        <ele>219</ele>
        <time>2017-07-30T09:09:17Z</time>
      </trkpt>
      <trkpt lat="50.08483" lon="5.18275">
        <ele>219</ele>
        <time>2017-07-30T09:09:27Z</time>
      </trkpt>
      <trkpt lat="50.0849" lon="5.18317">
        <ele>218</ele>
        <time>2017-07-30T09:09:38Z</time>
      </trkpt>
      <trkpt lat="50.08495" lon="5.18353">
        <ele>216</ele>
        <time>2017-07-30T09:09:48Z</time>
      </trkpt>
      <trkpt lat="50.08513" lon="5.18375">
        <ele>214</ele>
        <time>2017-07-30T09:09:59Z</time>
      </trkpt>
      <trkpt lat="50.08525" lon="5.184">
        <ele>212</ele>
        <time>2017-07-30T09:10:10Z</time>
      </trkpt>
      <trkpt lat="50.08536" lon="5.18425">
        <ele>212</ele>
        <time>2017-07-30T09:10:20Z</time>
      </trkpt>
      <trkpt lat="50.08541" lon="5.18451">
        <ele>214</ele>
        <time>2017-07-30T09:10:30Z</time>
      </trkpt>
      <trkpt lat="50.08545" lon="5.18469">
        <ele>215</ele>
        <time>2017-07-30T09:10:40Z</time>
      </trkpt>
      <trkpt lat="50.08553" lon="5.18492">
        <ele>216</ele>
        <time>2017-07-30T09:10:51Z</time>
      </trkpt>
      <trkpt lat="50.08557" lon="5.18521">
        <ele>218</ele>
        <time>2017-07-30T09:11:02Z</time>
      </trkpt>
      <trkpt lat="50.08562" lon="5.18546">
        <ele>218</ele>
        <time>2017-07-30T09:11:12Z</time>
      </trkpt>
      <trkpt lat="50.08567" lon="5.18572">
        <ele>220</ele>
        <time>2017-07-30T09:11:23Z</time>
      </trkpt>
      <trkpt lat="50.08572" lon="5.18595">
        <ele>221</ele>
        <time>2017-07-30T09:11:33Z</time>
      </trkpt>
      <trkpt lat="50.08578" lon="5.18619">
        <ele>222</ele>
        <time>2017-07-30T09:11:44Z</time>
      </trkpt>
      <trkpt lat="50.08584" lon="5.18643">
        <ele>223</ele>
        <time>2017-07-30T09:11:54Z</time>
      </trkpt>
      <trkpt lat="50.0859" lon="5.18668">
        <ele>225</ele>
        <time>2017-07-30T09:12:05Z</time>
      </trkpt>
      <trkpt lat="50.08594" lon="5.18691">
        <ele>226</ele>
        <time>2017-07-30T09:12:15Z</time>
      </trkpt>
      <trkpt lat="50.08599" lon="5.18717">
        <ele>226</ele>
        <time>2017-07-30T09:12:26Z</time>
      </trkpt>
      <trkpt lat="50.08602" lon="5.18738">
        <ele>227</ele>
        <time>2017-07-30T09:12:36Z</time>
      </trkpt>
      <trkpt lat="50.08608" lon="5.18759">
        <ele>228</ele>
        <time>2017-07-30T09:12:46Z</time>
      </trkpt>
      <trkpt lat="50.08615" lon="5.18778">
        <ele>229</ele>
        <time>2017-07-30T09:12:56Z</time>
      </trkpt>
      <trkpt lat="50.08625" lon="5.18796">
        <ele>229</ele>
        <time>2017-07-30T09:13:07Z</time>
      </trkpt>
      <trkpt lat="50.08633" lon="5.18815">
        <ele>229</ele>
        <time>2017-07-30T09:13:17Z</time>
      </trkpt>
      <trkpt lat="50.0864" lon="5.18843">
        <ele>231</ele>
        <time>2017-07-30T09:13:28Z</time>
      </trkpt>
      <trkpt lat="50.08646" lon="5.18871">
        <ele>230</ele>
        <time>2017-07-30T09:13:38Z</time>
      </trkpt>
      <trkpt lat="50.08654" lon="5.189">
        <ele>231</ele>
        <time>2017-07-30T09:13:48Z</time>
      </trkpt>
      <trkpt lat="50.0866" lon="5.18925">
        <ele>232</ele>
        <time>2017-07-30T09:13:58Z</time>
      </trkpt>
      <trkpt lat="50.08666" lon="5.18948">
        <ele>232</ele>
        <time>2017-07-30T09:14:08Z</time>
      </trkpt>
      <trkpt lat="50.08673" lon="5.1897">
        <ele>233</ele>
        <time>2017-07-30T09:14:19Z</time>
      </trkpt>
      <trkpt lat="50.08678" lon="5.18991">
        <ele>235</ele>
        <time>2017-07-30T09:14:29Z</time>
      </trkpt>
      <trkpt lat="50.08691" lon="5.19011">
        <ele>236</ele>
        <time>2017-07-30T09:14:40Z</time>
      </trkpt>
      <trkpt lat="50.08702" lon="5.19031">
        <ele>237</ele>
        <time>2017-07-30T09:14:50Z</time>
      </trkpt>
      <trkpt lat="50.08714" lon="5.19054">
        <ele>237</ele>
        <time>2017-07-30T09:15:01Z</time>
      </trkpt>
      <trkpt lat="50.08725" lon="5.19073">
        <ele>239</ele>
        <time>2017-07-30T09:15:11Z</time>
      </trkpt>
      <trkpt lat="50.08738" lon="5.19094">
        <ele>240</ele>
        <time>2017-07-30T09:15:22Z</time>
      </trkpt>
      <trkpt lat="50.08749" lon="5.19112">
        <ele>241</ele>
        <time>2017-07-30T09:15:32Z</time>
      </trkpt>
      <trkpt lat="50.08756" lon="5.19125">
        <ele>242</ele>
        <time>2017-07-30T09:15:42Z</time>
      </trkpt>
      <trkpt lat="50.08765" lon="5.19138">
        <ele>244</ele>
        <time>2017-07-30T09:15:53Z</time>
      </trkpt>
      <trkpt lat="50.08773" lon="5.1915">
        <ele>246</ele>
        <time>2017-07-30T09:16:03Z</time>
      </trkpt>
      <trkpt lat="50.08786" lon="5.19158">
        <ele>247</ele>
        <time>2017-07-30T09:16:13Z</time>
      </trkpt>
      <trkpt lat="50.08795" lon="5.19168">
        <ele>251</ele>
        <time>2017-07-30T09:16:24Z</time>
      </trkpt>
      <trkpt lat="50.08806" lon="5.19174">
        <ele>252</ele>
        <time>2017-07-30T09:16:34Z</time>
      </trkpt>
      <trkpt lat="50.08817" lon="5.19178">
        <ele>253</ele>
        <time>2017-07-30T09:16:44Z</time>
      </trkpt>
      <trkpt lat="50.0883" lon="5.19182">
        <ele>255</ele>
        <time>2017-07-30T09:16:55Z</time>
      </trkpt>
      <trkpt lat="50.08844" lon="5.19189">
        <ele>257</ele>
        <time>2017-07-30T09:17:05Z</time>
      </trkpt>
      <trkpt lat="50.08856" lon="5.19203">
        <ele>258</ele>
        <time>2017-07-30T09:17:16Z</time>
      </trkpt>
      <trkpt lat="50.08866" lon="5.19215">
        <ele>259</ele>
        <time>2017-07-30T09:17:27Z</time>
      </trkpt>
      <trkpt lat="50.08872" lon="5.19224">
        <ele>260</ele>
        <time>2017-07-30T09:17:37Z</time>
      </trkpt>
      <trkpt lat="50.08881" lon="5.19235">
        <ele>261</ele>
        <time>2017-07-30T09:17:48Z</time>
      </trkpt>
      <trkpt lat="50.08892" lon="5.1925">
        <ele>263</ele>
        <time>2017-07-30T09:17:58Z</time>
      </trkpt>
      <trkpt lat="50.08901" lon="5.19271">
        <ele>263</ele>
        <time>2017-07-30T09:18:08Z</time>
      </trkpt>
      <trkpt lat="50.08905" lon="5.19283">
        <ele>265</ele>
        <time>2017-07-30T09:18:19Z</time>
      </trkpt>
      <trkpt lat="50.08912" lon="5.19303">
        <ele>265</ele>
        <time>2017-07-30T09:18:29Z</time>
      </trkpt>
      <trkpt lat="50.08917" lon="5.19325">
        <ele>266</ele>
        <time>2017-07-30T09:18:40Z</time>
      </trkpt>
      <trkpt lat="50.08924" lon="5.19345">
        <ele>267</ele>
        <time>2017-07-30T09:18:50Z</time>
      </trkpt>
      <trkpt lat="50.08929" lon="5.19363">
        <ele>267</ele>
        <time>2017-07-30T09:19:00Z</time>
      </trkpt>
      <trkpt lat="50.08935" lon="5.19381">
        <ele>267</ele>
        <time>2017-07-30T09:19:10Z</time>
      </trkpt>
      <trkpt lat="50.0894" lon="5.19398">
        <ele>268</ele>
        <time>2017-07-30T09:19:20Z</time>
      </trkpt>
      <trkpt lat="50.08945" lon="5.1942">
        <ele>269</ele>
        <time>2017-07-30T09:19:31Z</time>
      </trkpt>
      <trkpt lat="50.08949" lon="5.19442">
        <ele>268</ele>
        <time>2017-07-30T09:19:42Z</time>
      </trkpt>
      <trkpt lat="50.08952" lon="5.19464">
        <ele>268</ele>
        <time>2017-07-30T09:19:52Z</time>
      </trkpt>
      <trkpt lat="50.08961" lon="5.19492">
        <ele>269</ele>
        <time>2017-07-30T09:20:03Z</time>
      </trkpt>
      <trkpt lat="50.08967" lon="5.19515">
        <ele>269</ele>
        <time>2017-07-30T09:20:13Z</time>
      </trkpt>
      <trkpt lat="50.08971" lon="5.19543">
        <ele>269</ele>
        <time>2017-07-30T09:20:24Z</time>
      </trkpt>
      <trkpt lat="50.08971" lon="5.19571">
        <ele>268</ele>
        <time>2017-07-30T09:20:35Z</time>
      </trkpt>
      <trkpt lat="50.08987" lon="5.19605">
        <ele>268</ele>
        <time>2017-07-30T09:20:46Z</time>
      </trkpt>
      <trkpt lat="50.09001" lon="5.19638">
        <ele>267</ele>
        <time>2017-07-30T09:20:56Z</time>
      </trkpt>
      <trkpt lat="50.09016" lon="5.1968">
        <ele>268</ele>
        <time>2017-07-30T09:21:07Z</time>
      </trkpt>
      <trkpt lat="50.09022" lon="5.19728">
        <ele>267</ele>
        <time>2017-07-30T09:21:18Z</time>
      </trkpt>
      <trkpt lat="50.09026" lon="5.19771">
        <ele>266</ele>
        <time>2017-07-30T09:21:28Z</time>
      </trkpt>
      <trkpt lat="50.0903" lon="5.19816">
        <ele>265</ele>
        <time>2017-07-30T09:21:38Z</time>
      </trkpt>
      <trkpt lat="50.09035" lon="5.19865">
        <ele>265</ele>
        <time>2017-07-30T09:21:49Z</time>
      </trkpt>
      <trkpt lat="50.09038" lon="5.19908">
        <ele>265</ele>
        <time>2017-07-30T09:21:59Z</time>
      </trkpt>
      <trkpt lat="50.09041" lon="5.19949">
        <ele>265</ele>
        <time>2017-07-30T09:22:09Z</time>
      </trkpt>
      <trkpt lat="50.09047" lon="5.19988">
        <ele>265</ele>
        <time>2017-07-30T09:22:19Z</time>
      </trkpt>
      <trkpt lat="50.09051" lon="5.20027">
        <ele>266</ele>
        <time>2017-07-30T09:22:29Z</time>
      </trkpt>
      <trkpt lat="50.09056" lon="5.20068">
        <ele>266</ele>
        <time>2017-07-30T09:22:39Z</time>
      </trkpt>
      <trkpt lat="50.0906" lon="5.20114">
        <ele>265</ele>
        <time>2017-07-30T09:22:50Z</time>
      </trkpt>
      <trkpt lat="50.09063" lon="5.20152">
        <ele>266</ele>
        <time>2017-07-30T09:23:00Z</time>
      </trkpt>
      <trkpt lat="50.09063" lon="5.202">
        <ele>264</ele>
        <time>2017-07-30T09:23:11Z</time>
      </trkpt>
      <trkpt lat="50.09063" lon="5.20243">
        <ele>265</ele>
        <time>2017-07-30T09:23:21Z</time>
      </trkpt>
      <trkpt lat="50.09057" lon="5.20285">
        <ele>264</ele>
        <time>2017-07-30T09:23:31Z</time>
      </trkpt>
      <trkpt lat="50.09075" lon="5.20282">
        <ele>264</ele>
        <time>2017-07-30T09:23:42Z</time>
      </trkpt>
      <trkpt lat="50.09099" lon="5.20256">
        <ele>264</ele>
        <time>2017-07-30T09:23:53Z</time>
      </trkpt>
      <trkpt lat="50.09121" lon="5.20232">
        <ele>262</ele>
        <time>2017-07-30T09:24:03Z</time>
      </trkpt>
      <trkpt lat="50.09145" lon="5.20206">
        <ele>262</ele>
        <time>2017-07-30T09:24:14Z</time>
      </trkpt>
      <trkpt lat="50.09166" lon="5.20184">
        <ele>261</ele>
        <time>2017-07-30T09:24:24Z</time>
      </trkpt>
      <trkpt lat="50.09185" lon="5.20162">
        <ele>261</ele>
        <time>2017-07-30T09:24:34Z</time>
      </trkpt>
      <trkpt lat="50.09209" lon="5.20148">
        <ele>261</ele>
        <time>2017-07-30T09:24:45Z</time>
      </trkpt>
      <trkpt lat="50.09224" lon="5.20178">
        <ele>261</ele>
        <time>2017-07-30T09:24:55Z</time>
      </trkpt>
      <trkpt lat="50.09237" lon="5.2021">
        <ele>261</ele>
        <time>2017-07-30T09:25:05Z</time>
      </trkpt>
      <trkpt lat="50.09251" lon="5.20245">
        <ele>260</ele>
        <time>2017-07-30T09:25:16Z</time>
      </trkpt>
      <trkpt lat="50.09263" lon="5.20277">
        <ele>260</ele>
        <time>2017-07-30T09:25:26Z</time>
      </trkpt>
      <trkpt lat="50.09277" lon="5.20307">
        <ele>259</ele>
        <time>2017-07-30T09:25:36Z</time>
      </trkpt>
      <trkpt lat="50.09291" lon="5.20342">
        <ele>258</ele>
        <time>2017-07-30T09:25:47Z</time>
      </trkpt>
      <trkpt lat="50.09304" lon="5.20375">
        <ele>257</ele>
        <time>2017-07-30T09:25:58Z</time>
      </trkpt>
      <trkpt lat="50.09318" lon="5.20408">
        <ele>255</ele>
        <time>2017-07-30T09:26:09Z</time>
      </trkpt>
      <trkpt lat="50.0933" lon="5.20438">
        <ele>256</ele>
        <time>2017-07-30T09:26:19Z</time>
      </trkpt>
      <trkpt lat="50.09342" lon="5.20468">
        <ele>256</ele>
        <time>2017-07-30T09:26:29Z</time>
      </trkpt>
      <trkpt lat="50.0936" lon="5.2046">
        <ele>255</ele>
        <time>2017-07-30T09:26:40Z</time>
      </trkpt>
      <trkpt lat="50.09379" lon="5.20446">
        <ele>255</ele>
        <time>2017-07-30T09:26:50Z</time>
      </trkpt>
      <trkpt lat="50.094" lon="5.20433">
        <ele>255</ele>
        <time>2017-07-30T09:27:01Z</time>
      </trkpt>
      <trkpt lat="50.09417" lon="5.20417">
        <ele>255</ele>
        <time>2017-07-30T09:27:11Z</time>
      </trkpt>
      <trkpt lat="50.09432" lon="5.20427">
        <ele>253</ele>
        <time>2017-07-30T09:27:22Z</time>
      </trkpt>
      <trkpt lat="50.09442" lon="5.20442">
        <ele>253</ele>
        <time>2017-07-30T09:27:33Z</time>
      </trkpt>
      <trkpt lat="50.09463" lon="5.20458">
        <ele>252</ele>
        <time>2017-07-30T09:27:43Z</time>
      </trkpt>
      <trkpt lat="50.09489" lon="5.20481">
        <ele>251</ele>
        <time>2017-07-30T09:27:54Z</time>
      </trkpt>
      <trkpt lat="50.09507" lon="5.20496">
        <ele>251</ele>
        <time>2017-07-30T09:28:04Z</time>
      </trkpt>
      <trkpt lat="50.09522" lon="5.20511">
        <ele>251</ele>
        <time>2017-07-30T09:28:15Z</time>
      </trkpt>
      <trkpt lat="50.09543" lon="5.20529">
        <ele>252</ele>
        <time>2017-07-30T09:28:26Z</time>
      </trkpt>
      <trkpt lat="50.09563" lon="5.20546">
        <ele>252</ele>
        <time>2017-07-30T09:28:36Z</time>
      </trkpt>
      <trkpt lat="50.09589" lon="5.2057">
        <ele>252</ele>
        <time>2017-07-30T09:28:47Z</time>
      </trkpt>
      <trkpt lat="50.09614" lon="5.20588">
        <ele>250</ele>
        <time>2017-07-30T09:28:57Z</time>
      </trkpt>
      <trkpt lat="50.09636" lon="5.20602">
        <ele>248</ele>
        <time>2017-07-30T09:29:07Z</time>
      </trkpt>
      <trkpt lat="50.09655" lon="5.20624">
        <ele>248</ele>
        <time>2017-07-30T09:29:17Z</time>
      </trkpt>
      <trkpt lat="50.09667" lon="5.20658">
        <ele>248</ele>
        <time>2017-07-30T09:29:27Z</time>
      </trkpt>
      <trkpt lat="50.09675" lon="5.20685">
        <ele>246</ele>
        <time>2017-07-30T09:29:38Z</time>
      </trkpt>
      <trkpt lat="50.09684" lon="5.20693">
        <ele>243</ele>
        <time>2017-07-30T09:29:48Z</time>
      </trkpt>
      <trkpt lat="50.09685" lon="5.20708">
        <ele>239</ele>
        <time>2017-07-30T09:29:58Z</time>
      </trkpt>
      <trkpt lat="50.09672" lon="5.20732">
        <ele>234</ele>
        <time>2017-07-30T09:30:09Z</time>
      </trkpt>
      <trkpt lat="50.09675" lon="5.20762">
        <ele>230</ele>
        <time>2017-07-30T09:30:19Z</time>
      </trkpt>
      <trkpt lat="50.09687" lon="5.20791">
        <ele>226</ele>
        <time>2017-07-30T09:30:30Z</time>
      </trkpt>
      <trkpt lat="50.09704" lon="5.20822">
        <ele>224</ele>
        <time>2017-07-30T09:30:41Z</time>
      </trkpt>
      <trkpt lat="50.09714" lon="5.20846">
        <ele>225</ele>
        <time>2017-07-30T09:30:51Z</time>
      </trkpt>
      <trkpt lat="50.09719" lon="5.20871">
        <ele>224</ele>
        <time>2017-07-30T09:31:01Z</time>
      </trkpt>
      <trkpt lat="50.09716" lon="5.20891">
        <ele>221</ele>
        <time>2017-07-30T09:31:12Z</time>
      </trkpt>
      <trkpt lat="50.0971" lon="5.20904">
        <ele>218</ele>
        <time>2017-07-30T09:31:22Z</time>
      </trkpt>
      <trkpt lat="50.0971" lon="5.2092">
        <ele>213</ele>
        <time>2017-07-30T09:31:32Z</time>
      </trkpt>
      <trkpt lat="50.09699" lon="5.20933">
        <ele>210</ele>
        <time>2017-07-30T09:31:42Z</time>
      </trkpt>
      <trkpt lat="50.09689" lon="5.20954">
        <ele>211</ele>
        <time>2017-07-30T09:31:53Z</time>
      </trkpt>
      <trkpt lat="50.0967" lon="5.20962">
        <ele>212</ele>
        <time>2017-07-30T09:32:03Z</time>
      </trkpt>
      <trkpt lat="50.09649" lon="5.20968">
        <ele>213</ele>
        <time>2017-07-30T09:32:13Z</time>
      </trkpt>
      <trkpt lat="50.09626" lon="5.20978">
        <ele>213</ele>
        <time>2017-07-30T09:32:24Z</time>
      </trkpt>
      <trkpt lat="50.09602" lon="5.20976">
        <ele>213</ele>
        <time>2017-07-30T09:32:35Z</time>
      </trkpt>
      <trkpt lat="50.09584" lon="5.20979">
        <ele>214</ele>
        <time>2017-07-30T09:32:45Z</time>
      </trkpt>
      <trkpt lat="50.09568" lon="5.20982">
        <ele>215</ele>
        <time>2017-07-30T09:32:56Z</time>
      </trkpt>
      <trkpt lat="50.09553" lon="5.20986">
        <ele>217</ele>
        <time>2017-07-30T09:33:06Z</time>
      </trkpt>
      <trkpt lat="50.09527" lon="5.20982">
        <ele>217</ele>
        <time>2017-07-30T09:33:17Z</time>
      </trkpt>
      <trkpt lat="50.09505" lon="5.20984">
        <ele>218</ele>
        <time>2017-07-30T09:33:27Z</time>
      </trkpt>
      <trkpt lat="50.09488" lon="5.20982">
        <ele>218</ele>
        <time>2017-07-30T09:33:37Z</time>
      </trkpt>
      <trkpt lat="50.09467" lon="5.2098">
        <ele>218</ele>
        <time>2017-07-30T09:33:48Z</time>
      </trkpt>
      <trkpt lat="50.09443" lon="5.20976">
        <ele>220</ele>
        <time>2017-07-30T09:33:59Z</time>
      </trkpt>
      <trkpt lat="50.09416" lon="5.20969">
        <ele>220</ele>
        <time>2017-07-30T09:34:09Z</time>
      </trkpt>
      <trkpt lat="50.0939" lon="5.20962">
        <ele>220</ele>
        <time>2017-07-30T09:34:20Z</time>
      </trkpt>
      <trkpt lat="50.09367" lon="5.20954">
        <ele>220</ele>
        <time>2017-07-30T09:34:30Z</time>
      </trkpt>
      <trkpt lat="50.09345" lon="5.20957">
        <ele>220</ele>
        <time>2017-07-30T09:34:40Z</time>
      </trkpt>
      <trkpt lat="50.09323" lon="5.20956">
        <ele>221</ele>
        <time>2017-07-30T09:34:50Z</time>
      </trkpt>
      <trkpt lat="50.09297" lon="5.20954">
        <ele>222</ele>
        <time>2017-07-30T09:35:01Z</time>
      </trkpt>
      <trkpt lat="50.09275" lon="5.2096">
        <ele>222</ele>
        <time>2017-07-30T09:35:11Z</time>
      </trkpt>
      <trkpt lat="50.09255" lon="5.20972">
        <ele>222</ele>
        <time>2017-07-30T09:35:22Z</time>
      </trkpt>
      <trkpt lat="50.09236" lon="5.20991">
        <ele>222</ele>
        <time>2017-07-30T09:35:32Z</time>
      </trkpt>
      <trkpt lat="50.09217" lon="5.21009">
        <ele>222</ele>
        <time>2017-07-30T09:35:43Z</time>
      </trkpt>
      <trkpt lat="50.092" lon="5.21036">
        <ele>222</ele>
        <time>2017-07-30T09:35:53Z</time>
      </trkpt>
      <trkpt lat="50.09189" lon="5.21061">
        <ele>223</ele>
        <time>2017-07-30T09:36:03Z</time>
      </trkpt>
      <trkpt lat="50.09177" lon="5.21093">
        <ele>223</ele>
        <time>2017-07-30T09:36:13Z</time>
      </trkpt>
      <trkpt lat="50.09169" lon="5.21123">
        <ele>223</ele>
        <time>2017-07-30T09:36:24Z</time>
      </trkpt>
      <trkpt lat="50.09161" lon="5.21145">
        <ele>223</ele>
        <time>2017-07-30T09:36:34Z</time>
      </trkpt>
      <trkpt lat="50.0915" lon="5.21174">
        <ele>224</ele>
        <time>2017-07-30T09:36:44Z</time>
      </trkpt>
      <trkpt lat="50.09145" lon="5.21202">
        <ele>225</ele>
        <time>2017-07-30T09:36:55Z</time>
      </trkpt>
      <trkpt lat="50.09142" lon="5.21228">
        <ele>226</ele>
        <time>2017-07-30T09:37:06Z</time>
      </trkpt>
      <trkpt lat="50.09133" lon="5.2125">
        <ele>228</ele>
        <time>2017-07-30T09:37:16Z</time>
      </trkpt>
      <trkpt lat="50.09124" lon="5.21272">
        <ele>229</ele>
        <time>2017-07-30T09:37:27Z</time>
      </trkpt>
      <trkpt lat="50.09115" lon="5.21289">
        <ele>229</ele>
        <time>2017-07-30T09:37:38Z</time>
      </trkpt>
      <trkpt lat="50.09102" lon="5.21306">
        <ele>230</ele>
        <time>2017-07-30T09:37:49Z</time>
      </trkpt>
      <trkpt lat="50.09087" lon="5.21326">
        <ele>230</ele>
        <time>2017-07-30T09:38:00Z</time>
      </trkpt>
      <trkpt lat="50.09077" lon="5.21349">
        <ele>230</ele>
        <time>2017-07-30T09:38:10Z</time>
      </trkpt>
      <trkpt lat="50.09068" lon="5.21371">
        <ele>231</ele>
        <time>2017-07-30T09:38:20Z</time>
      </trkpt>
      <trkpt lat="50.09062" lon="5.21391">
        <ele>231</ele>
        <time>2017-07-30T09:38:30Z</time>
      </trkpt>
      <trkpt lat="50.09053" lon="5.21416">
        <ele>231</ele>
        <time>2017-07-30T09:38:41Z</time>
      </trkpt>
      <trkpt lat="50.09045" lon="5.21443">
        <ele>231</ele>
        <time>2017-07-30T09:38:51Z</time>
      </trkpt>
      <trkpt lat="50.09035" lon="5.21481">
        <ele>231</ele>
        <time>2017-07-30T09:39:02Z</time>
      </trkpt>
      <trkpt lat="50.09031" lon="5.21515">
        <ele>230</ele>
        <time>2017-07-30T09:39:12Z</time>
      </trkpt>
      <trkpt lat="50.09027" lon="5.21564">
        <ele>230</ele>
        <time>2017-07-30T09:39:23Z</time>
      </trkpt>
      <trkpt lat="50.09029" lon="5.21609">
        <ele>230</ele>
        <time>2017-07-30T09:39:33Z</time>
      </trkpt>
      <trkpt lat="50.09032" lon="5.21652">
        <ele>230</ele>
        <time>2017-07-30T09:39:44Z</time>
      </trkpt>
      <trkpt lat="50.09017" lon="5.21662">
        <ele>230</ele>
        <time>2017-07-30T09:39:55Z</time>
      </trkpt>
      <trkpt lat="50.09008" lon="5.21686">
        <ele>230</ele>
        <time>2017-07-30T09:40:05Z</time>
      </trkpt>
      <trkpt lat="50.09007" lon="5.21717">
        <ele>231</ele>
        <time>2017-07-30T09:40:15Z</time>
      </trkpt>
      <trkpt lat="50.09008" lon="5.21751">
        <ele>231</ele>
        <time>2017-07-30T09:40:26Z</time>
      </trkpt>
      <trkpt lat="50.09014" lon="5.21771">
        <ele>231</ele>
        <time>2017-07-30T09:40:36Z</time>
      </trkpt>
      <trkpt lat="50.09017" lon="5.21795">
        <ele>232</ele>
        <time>2017-07-30T09:40:47Z</time>
      </trkpt>
      <trkpt lat="50.09015" lon="5.2182">
        <ele>231</ele>
        <time>2017-07-30T09:40:57Z</time>
      </trkpt>
      <trkpt lat="50.09008" lon="5.21846">
        <ele>232</ele>
        <time>2017-07-30T09:41:08Z</time>
      </trkpt>
      <trkpt lat="50.09008" lon="5.21875">
        <ele>232</ele>
        <time>2017-07-30T09:41:18Z</time>
      </trkpt>
      <trkpt lat="50.09001" lon="5.21891">
        <ele>233</ele>
        <time>2017-07-30T09:41:29Z</time>
      </trkpt>
      <trkpt lat="50.08999" lon="5.21913">
        <ele>234</ele>
        <time>2017-07-30T09:41:39Z</time>
      </trkpt>
      <trkpt lat="50.09005" lon="5.21946">
        <ele>235</ele>
        <time>2017-07-30T09:41:50Z</time>
      </trkpt>
      <trkpt lat="50.0901" lon="5.21986">
        <ele>236</ele>
        <time>2017-07-30T09:42:01Z</time>
      </trkpt>
      <trkpt lat="50.09011" lon="5.22022">
        <ele>236</ele>
        <time>2017-07-30T09:42:11Z</time>
      </trkpt>
      <trkpt lat="50.0901" lon="5.22055">
        <ele>237</ele>
        <time>2017-07-30T09:42:22Z</time>
      </trkpt>
      <trkpt lat="50.09004" lon="5.2209">
        <ele>238</ele>
        <time>2017-07-30T09:42:33Z</time>
      </trkpt>
      <trkpt lat="50.08988" lon="5.22122">
        <ele>240</ele>
        <time>2017-07-30T09:42:43Z</time>
      </trkpt>
      <trkpt lat="50.0897" lon="5.22163">
        <ele>239</ele>
        <time>2017-07-30T09:42:54Z</time>
      </trkpt>
      <trkpt lat="50.08948" lon="5.22188">
        <ele>238</ele>
        <time>2017-07-30T09:43:05Z</time>
      </trkpt>
      <trkpt lat="50.08921" lon="5.22219">
        <ele>237</ele>
        <time>2017-07-30T09:43:16Z</time>
      </trkpt>
      <trkpt lat="50.08901" lon="5.22249">
        <ele>238</ele>
        <time>2017-07-30T09:43:26Z</time>
      </trkpt>
      <trkpt lat="50.08892" lon="5.22256">
        <ele>239</ele>
        <time>2017-07-30T09:43:27Z</time>
      </trkpt>
    </trkseg>
  </trk>
</gpx>